sensor_id;sensor_type;location;lat;lon;timestamp;P1;durP1;ratioP1;P2;durP2;ratioP2
13975;SDS011;7062;49.792;9.946;2023-07-22T00:00:47;2.43;;;1.83;;
13975;SDS011;7062;49.792;9.946;2023-07-22T00:03:13;1.63;;;1.47;;
13975;SDS011;7062;49.792;9.946;2023-07-22T00:05:39;2.30;;;1.70;;
13975;SDS011;7062;49.792;9.946;2023-07-22T00:08:05;1.63;;;1.33;;
13975;SDS011;7062;49.792;9.946;2023-07-22T00:10:31;2.10;;;1.50;;
13975;SDS011;7062;49.792;9.946;2023-07-22T00:12:56;3.43;;;1.50;;
13975;SDS011;7062;49.792;9.946;2023-07-22T00:15:22;2.23;;;1.67;;
13975;SDS011;7062;49.792;9.946;2023-07-22T00:17:49;4.47;;;1.97;;
13975;SDS011;7062;49.792;9.946;2023-07-22T00:20:15;3.10;;;1.87;;
13975;SDS011;7062;49.792;9.946;2023-07-22T00:22:41;2.80;;;1.73;;
13975;SDS011;7062;49.792;9.946;2023-07-22T00:25:09;2.23;;;1.90;;
13975;SDS011;7062;49.792;9.946;2023-07-22T00:27:39;2.87;;;1.73;;
13975;SDS011;7062;49.792;9.946;2023-07-22T00:30:08;1.97;;;1.30;;
13975;SDS011;7062;49.792;9.946;2023-07-22T00:32:34;2.40;;;1.50;;
13975;SDS011;7062;49.792;9.946;2023-07-22T00:35:02;2.17;;;1.80;;
13975;SDS011;7062;49.792;9.946;2023-07-22T00:37:31;1.93;;;1.43;;
13975;SDS011;7062;49.792;9.946;2023-07-22T00:39:58;4.57;;;1.57;;
13975;SDS011;7062;49.792;9.946;2023-07-22T00:42:24;9.17;;;1.90;;
13975;SDS011;7062;49.792;9.946;2023-07-22T00:44:50;2.23;;;1.63;;
13975;SDS011;7062;49.792;9.946;2023-07-22T00:47:15;3.37;;;1.67;;
13975;SDS011;7062;49.792;9.946;2023-07-22T00:49:42;1.60;;;1.50;;
13975;SDS011;7062;49.792;9.946;2023-07-22T00:52:09;2.97;;;1.43;;
13975;SDS011;7062;49.792;9.946;2023-07-22T00:54:35;2.00;;;1.80;;
13975;SDS011;7062;49.792;9.946;2023-07-22T00:57:00;2.83;;;1.40;;
13975;SDS011;7062;49.792;9.946;2023-07-22T00:59:26;3.07;;;1.33;;
13975;SDS011;7062;49.792;9.946;2023-07-22T01:01:53;3.03;;;1.60;;
13975;SDS011;7062;49.792;9.946;2023-07-22T01:04:18;3.67;;;1.57;;
13975;SDS011;7062;49.792;9.946;2023-07-22T01:06:47;3.30;;;1.77;;
13975;SDS011;7062;49.792;9.946;2023-07-22T01:09:14;2.30;;;1.80;;
13975;SDS011;7062;49.792;9.946;2023-07-22T01:11:39;2.87;;;1.80;;
13975;SDS011;7062;49.792;9.946;2023-07-22T01:14:05;2.17;;;1.67;;
13975;SDS011;7062;49.792;9.946;2023-07-22T01:16:33;1.83;;;1.50;;
13975;SDS011;7062;49.792;9.946;2023-07-22T01:18:59;2.83;;;1.80;;
13975;SDS011;7062;49.792;9.946;2023-07-22T01:21:25;3.13;;;2.07;;
13975;SDS011;7062;49.792;9.946;2023-07-22T01:23:52;2.17;;;1.67;;
13975;SDS011;7062;49.792;9.946;2023-07-22T01:26:18;3.77;;;1.63;;
13975;SDS011;7062;49.792;9.946;2023-07-22T01:28:44;2.30;;;1.80;;
13975;SDS011;7062;49.792;9.946;2023-07-22T01:31:10;2.43;;;1.50;;
13975;SDS011;7062;49.792;9.946;2023-07-22T01:33:36;2.33;;;1.83;;
13975;SDS011;7062;49.792;9.946;2023-07-22T01:36:03;3.20;;;1.77;;
13975;SDS011;7062;49.792;9.946;2023-07-22T01:38:29;2.50;;;1.27;;
13975;SDS011;7062;49.792;9.946;2023-07-22T01:40:56;2.87;;;1.70;;
13975;SDS011;7062;49.792;9.946;2023-07-22T01:43:21;2.87;;;1.87;;
13975;SDS011;7062;49.792;9.946;2023-07-22T01:45:47;3.93;;;1.70;;
13975;SDS011;7062;49.792;9.946;2023-07-22T01:48:13;2.73;;;1.60;;
13975;SDS011;7062;49.792;9.946;2023-07-22T01:50:38;1.93;;;1.60;;
13975;SDS011;7062;49.792;9.946;2023-07-22T01:53:04;1.73;;;1.53;;
13975;SDS011;7062;49.792;9.946;2023-07-22T01:55:30;2.07;;;1.70;;
13975;SDS011;7062;49.792;9.946;2023-07-22T01:57:57;2.23;;;1.77;;
13975;SDS011;7062;49.792;9.946;2023-07-22T02:00:23;2.20;;;1.80;;
13975;SDS011;7062;49.792;9.946;2023-07-22T02:02:49;2.20;;;1.93;;
13975;SDS011;7062;49.792;9.946;2023-07-22T02:05:14;3.03;;;2.13;;
13975;SDS011;7062;49.792;9.946;2023-07-22T02:07:40;3.77;;;1.90;;
13975;SDS011;7062;49.792;9.946;2023-07-22T02:10:06;3.70;;;1.97;;
13975;SDS011;7062;49.792;9.946;2023-07-22T02:12:32;2.90;;;2.30;;
13975;SDS011;7062;49.792;9.946;2023-07-22T02:14:57;3.60;;;1.97;;
13975;SDS011;7062;49.792;9.946;2023-07-22T02:17:23;4.17;;;1.97;;
13975;SDS011;7062;49.792;9.946;2023-07-22T02:19:49;3.67;;;2.03;;
13975;SDS011;7062;49.792;9.946;2023-07-22T02:22:15;2.80;;;2.03;;
13975;SDS011;7062;49.792;9.946;2023-07-22T02:24:40;4.07;;;2.40;;
13975;SDS011;7062;49.792;9.946;2023-07-22T02:27:06;3.57;;;2.10;;
13975;SDS011;7062;49.792;9.946;2023-07-22T02:29:33;1.90;;;1.70;;
13975;SDS011;7062;49.792;9.946;2023-07-22T02:31:59;2.67;;;2.30;;
13975;SDS011;7062;49.792;9.946;2023-07-22T02:34:26;3.87;;;2.63;;
13975;SDS011;7062;49.792;9.946;2023-07-22T02:36:52;1.97;;;1.67;;
13975;SDS011;7062;49.792;9.946;2023-07-22T02:39:17;2.70;;;1.87;;
13975;SDS011;7062;49.792;9.946;2023-07-22T02:41:43;3.03;;;1.77;;
13975;SDS011;7062;49.792;9.946;2023-07-22T02:44:09;3.53;;;1.80;;
13975;SDS011;7062;49.792;9.946;2023-07-22T02:46:34;4.53;;;2.10;;
13975;SDS011;7062;49.792;9.946;2023-07-22T02:49:00;4.13;;;2.73;;
13975;SDS011;7062;49.792;9.946;2023-07-22T02:51:25;6.57;;;2.33;;
13975;SDS011;7062;49.792;9.946;2023-07-22T02:53:51;2.87;;;2.63;;
13975;SDS011;7062;49.792;9.946;2023-07-22T02:56:17;2.40;;;2.20;;
13975;SDS011;7062;49.792;9.946;2023-07-22T02:58:43;4.93;;;2.10;;
13975;SDS011;7062;49.792;9.946;2023-07-22T03:01:08;2.97;;;2.07;;
13975;SDS011;7062;49.792;9.946;2023-07-22T03:03:35;3.53;;;2.43;;
13975;SDS011;7062;49.792;9.946;2023-07-22T03:06:02;3.13;;;2.60;;
13975;SDS011;7062;49.792;9.946;2023-07-22T03:08:28;5.80;;;1.77;;
13975;SDS011;7062;49.792;9.946;2023-07-22T03:10:54;2.53;;;2.27;;
13975;SDS011;7062;49.792;9.946;2023-07-22T03:13:20;6.60;;;2.50;;
13975;SDS011;7062;49.792;9.946;2023-07-22T03:15:46;3.50;;;2.27;;
13975;SDS011;7062;49.792;9.946;2023-07-22T03:18:12;2.60;;;2.10;;
13975;SDS011;7062;49.792;9.946;2023-07-22T03:20:38;3.03;;;2.00;;
13975;SDS011;7062;49.792;9.946;2023-07-22T03:23:04;3.37;;;2.17;;
13975;SDS011;7062;49.792;9.946;2023-07-22T03:25:31;2.57;;;1.97;;
13975;SDS011;7062;49.792;9.946;2023-07-22T03:27:59;5.17;;;2.53;;
13975;SDS011;7062;49.792;9.946;2023-07-22T03:30:30;4.73;;;2.20;;
13975;SDS011;7062;49.792;9.946;2023-07-22T03:32:56;3.30;;;2.53;;
13975;SDS011;7062;49.792;9.946;2023-07-22T03:35:22;3.70;;;2.57;;
13975;SDS011;7062;49.792;9.946;2023-07-22T03:37:48;5.50;;;3.17;;
13975;SDS011;7062;49.792;9.946;2023-07-22T03:40:14;3.03;;;2.73;;
13975;SDS011;7062;49.792;9.946;2023-07-22T03:42:54;6.47;;;3.30;;
13975;SDS011;7062;49.792;9.946;2023-07-22T03:45:20;4.20;;;3.60;;
13975;SDS011;7062;49.792;9.946;2023-07-22T03:47:50;8.40;;;3.63;;
13975;SDS011;7062;49.792;9.946;2023-07-22T03:50:21;4.43;;;3.47;;
13975;SDS011;7062;49.792;9.946;2023-07-22T03:52:47;6.77;;;3.87;;
13975;SDS011;7062;49.792;9.946;2023-07-22T03:55:13;4.67;;;2.63;;
13975;SDS011;7062;49.792;9.946;2023-07-22T03:57:39;3.77;;;2.37;;
13975;SDS011;7062;49.792;9.946;2023-07-22T04:00:05;7.10;;;2.97;;
13975;SDS011;7062;49.792;9.946;2023-07-22T04:02:34;3.37;;;3.03;;
13975;SDS011;7062;49.792;9.946;2023-07-22T04:04:59;3.10;;;2.13;;
13975;SDS011;7062;49.792;9.946;2023-07-22T04:07:25;3.97;;;2.93;;
13975;SDS011;7062;49.792;9.946;2023-07-22T04:09:51;4.73;;;2.10;;
13975;SDS011;7062;49.792;9.946;2023-07-22T04:12:16;3.33;;;2.67;;
13975;SDS011;7062;49.792;9.946;2023-07-22T04:14:42;2.23;;;1.70;;
13975;SDS011;7062;49.792;9.946;2023-07-22T04:17:08;2.53;;;2.30;;
13975;SDS011;7062;49.792;9.946;2023-07-22T04:19:33;7.20;;;2.60;;
13975;SDS011;7062;49.792;9.946;2023-07-22T04:21:59;3.40;;;2.30;;
13975;SDS011;7062;49.792;9.946;2023-07-22T04:24:29;3.33;;;2.20;;
13975;SDS011;7062;49.792;9.946;2023-07-22T04:26:56;3.60;;;3.03;;
13975;SDS011;7062;49.792;9.946;2023-07-22T04:29:21;2.63;;;1.90;;
13975;SDS011;7062;49.792;9.946;2023-07-22T04:31:47;5.00;;;2.40;;
13975;SDS011;7062;49.792;9.946;2023-07-22T04:34:13;2.70;;;1.93;;
13975;SDS011;7062;49.792;9.946;2023-07-22T04:36:38;5.87;;;3.07;;
13975;SDS011;7062;49.792;9.946;2023-07-22T04:39:04;2.33;;;2.10;;
13975;SDS011;7062;49.792;9.946;2023-07-22T04:41:30;3.27;;;2.33;;
13975;SDS011;7062;49.792;9.946;2023-07-22T04:43:56;3.97;;;2.20;;
13975;SDS011;7062;49.792;9.946;2023-07-22T04:46:23;4.23;;;2.57;;
13975;SDS011;7062;49.792;9.946;2023-07-22T04:48:49;4.20;;;2.23;;
13975;SDS011;7062;49.792;9.946;2023-07-22T04:51:15;2.90;;;2.20;;
13975;SDS011;7062;49.792;9.946;2023-07-22T04:53:40;4.13;;;2.40;;
13975;SDS011;7062;49.792;9.946;2023-07-22T04:56:06;2.87;;;2.40;;
13975;SDS011;7062;49.792;9.946;2023-07-22T04:58:31;3.43;;;2.33;;
13975;SDS011;7062;49.792;9.946;2023-07-22T05:00:57;2.53;;;1.77;;
13975;SDS011;7062;49.792;9.946;2023-07-22T05:03:23;2.60;;;2.00;;
13975;SDS011;7062;49.792;9.946;2023-07-22T05:05:52;2.77;;;2.40;;
13975;SDS011;7062;49.792;9.946;2023-07-22T05:08:18;3.33;;;2.53;;
13975;SDS011;7062;49.792;9.946;2023-07-22T05:10:44;3.13;;;2.83;;
13975;SDS011;7062;49.792;9.946;2023-07-22T05:13:09;2.20;;;1.77;;
13975;SDS011;7062;49.792;9.946;2023-07-22T05:15:35;3.70;;;3.03;;
13975;SDS011;7062;49.792;9.946;2023-07-22T05:18:00;5.00;;;2.83;;
13975;SDS011;7062;49.792;9.946;2023-07-22T05:20:26;4.53;;;2.10;;
13975;SDS011;7062;49.792;9.946;2023-07-22T05:22:52;2.47;;;2.27;;
13975;SDS011;7062;49.792;9.946;2023-07-22T05:25:17;3.60;;;2.40;;
13975;SDS011;7062;49.792;9.946;2023-07-22T05:27:43;3.40;;;2.10;;
13975;SDS011;7062;49.792;9.946;2023-07-22T05:30:09;3.70;;;2.30;;
13975;SDS011;7062;49.792;9.946;2023-07-22T05:32:35;3.97;;;2.37;;
13975;SDS011;7062;49.792;9.946;2023-07-22T05:35:01;2.20;;;2.00;;
13975;SDS011;7062;49.792;9.946;2023-07-22T05:37:29;4.37;;;2.43;;
13975;SDS011;7062;49.792;9.946;2023-07-22T05:39:55;2.47;;;2.07;;
13975;SDS011;7062;49.792;9.946;2023-07-22T05:42:21;5.37;;;2.73;;
13975;SDS011;7062;49.792;9.946;2023-07-22T05:44:47;2.43;;;2.20;;
13975;SDS011;7062;49.792;9.946;2023-07-22T05:47:13;8.63;;;2.97;;
13975;SDS011;7062;49.792;9.946;2023-07-22T05:49:39;5.53;;;3.47;;
13975;SDS011;7062;49.792;9.946;2023-07-22T05:52:05;4.20;;;2.60;;
13975;SDS011;7062;49.792;9.946;2023-07-22T05:54:31;3.43;;;2.87;;
13975;SDS011;7062;49.792;9.946;2023-07-22T05:56:57;5.90;;;3.30;;
13975;SDS011;7062;49.792;9.946;2023-07-22T05:59:22;4.13;;;2.73;;
13975;SDS011;7062;49.792;9.946;2023-07-22T06:01:48;3.30;;;2.63;;
13975;SDS011;7062;49.792;9.946;2023-07-22T06:04:14;5.00;;;2.93;;
13975;SDS011;7062;49.792;9.946;2023-07-22T06:06:39;3.17;;;2.27;;
13975;SDS011;7062;49.792;9.946;2023-07-22T06:09:05;3.43;;;2.83;;
13975;SDS011;7062;49.792;9.946;2023-07-22T06:11:30;4.13;;;2.37;;
13975;SDS011;7062;49.792;9.946;2023-07-22T06:13:56;4.97;;;2.20;;
13975;SDS011;7062;49.792;9.946;2023-07-22T06:16:22;4.07;;;2.63;;
13975;SDS011;7062;49.792;9.946;2023-07-22T06:18:47;11.20;;;4.77;;
13975;SDS011;7062;49.792;9.946;2023-07-22T06:21:13;4.60;;;2.80;;
13975;SDS011;7062;49.792;9.946;2023-07-22T06:23:39;3.97;;;2.60;;
13975;SDS011;7062;49.792;9.946;2023-07-22T06:26:04;2.77;;;2.30;;
13975;SDS011;7062;49.792;9.946;2023-07-22T06:28:30;3.50;;;2.70;;
13975;SDS011;7062;49.792;9.946;2023-07-22T06:30:56;2.87;;;2.50;;
13975;SDS011;7062;49.792;9.946;2023-07-22T06:33:22;3.47;;;2.67;;
13975;SDS011;7062;49.792;9.946;2023-07-22T06:35:48;3.77;;;2.87;;
13975;SDS011;7062;49.792;9.946;2023-07-22T06:38:13;3.10;;;2.63;;
13975;SDS011;7062;49.792;9.946;2023-07-22T06:40:39;3.33;;;2.47;;
13975;SDS011;7062;49.792;9.946;2023-07-22T06:43:05;4.03;;;3.00;;
13975;SDS011;7062;49.792;9.946;2023-07-22T06:45:31;3.23;;;2.40;;
13975;SDS011;7062;49.792;9.946;2023-07-22T06:47:57;4.17;;;2.90;;
13975;SDS011;7062;49.792;9.946;2023-07-22T06:50:23;3.07;;;2.40;;
13975;SDS011;7062;49.792;9.946;2023-07-22T06:52:49;7.43;;;2.70;;
13975;SDS011;7062;49.792;9.946;2023-07-22T06:55:15;4.13;;;2.60;;
13975;SDS011;7062;49.792;9.946;2023-07-22T06:57:41;4.33;;;2.43;;
13975;SDS011;7062;49.792;9.946;2023-07-22T07:00:07;3.47;;;2.90;;
13975;SDS011;7062;49.792;9.946;2023-07-22T07:02:34;3.10;;;2.67;;
13975;SDS011;7062;49.792;9.946;2023-07-22T07:05:01;3.30;;;2.37;;
13975;SDS011;7062;49.792;9.946;2023-07-22T07:07:26;3.27;;;2.20;;
13975;SDS011;7062;49.792;9.946;2023-07-22T07:09:52;4.37;;;2.83;;
13975;SDS011;7062;49.792;9.946;2023-07-22T07:12:18;3.73;;;3.43;;
13975;SDS011;7062;49.792;9.946;2023-07-22T07:14:43;4.40;;;3.00;;
13975;SDS011;7062;49.792;9.946;2023-07-22T07:17:09;3.47;;;2.80;;
13975;SDS011;7062;49.792;9.946;2023-07-22T07:19:35;8.03;;;3.20;;
13975;SDS011;7062;49.792;9.946;2023-07-22T07:22:00;3.67;;;2.77;;
13975;SDS011;7062;49.792;9.946;2023-07-22T07:24:26;3.30;;;2.87;;
13975;SDS011;7062;49.792;9.946;2023-07-22T07:26:52;7.13;;;2.97;;
13975;SDS011;7062;49.792;9.946;2023-07-22T07:29:18;5.20;;;3.20;;
13975;SDS011;7062;49.792;9.946;2023-07-22T07:31:43;4.23;;;3.03;;
13975;SDS011;7062;49.792;9.946;2023-07-22T07:34:09;5.90;;;3.17;;
13975;SDS011;7062;49.792;9.946;2023-07-22T07:36:35;4.57;;;3.17;;
13975;SDS011;7062;49.792;9.946;2023-07-22T07:39:02;3.33;;;3.00;;
13975;SDS011;7062;49.792;9.946;2023-07-22T07:41:28;3.63;;;2.70;;
13975;SDS011;7062;49.792;9.946;2023-07-22T07:43:54;4.70;;;3.03;;
13975;SDS011;7062;49.792;9.946;2023-07-22T07:46:23;4.37;;;2.80;;
13975;SDS011;7062;49.792;9.946;2023-07-22T07:48:52;2.80;;;2.50;;
13975;SDS011;7062;49.792;9.946;2023-07-22T07:51:20;4.90;;;2.53;;
13975;SDS011;7062;49.792;9.946;2023-07-22T07:53:46;2.73;;;2.47;;
13975;SDS011;7062;49.792;9.946;2023-07-22T07:56:13;3.13;;;2.60;;
13975;SDS011;7062;49.792;9.946;2023-07-22T07:58:39;2.83;;;2.47;;
13975;SDS011;7062;49.792;9.946;2023-07-22T08:01:05;5.50;;;3.00;;
13975;SDS011;7062;49.792;9.946;2023-07-22T08:03:32;4.60;;;3.10;;
13975;SDS011;7062;49.792;9.946;2023-07-22T08:05:58;5.73;;;2.63;;
13975;SDS011;7062;49.792;9.946;2023-07-22T08:08:24;4.27;;;2.37;;
13975;SDS011;7062;49.792;9.946;2023-07-22T08:13:31;4.37;;;2.53;;
13975;SDS011;7062;49.792;9.946;2023-07-22T08:15:58;3.77;;;2.47;;
13975;SDS011;7062;49.792;9.946;2023-07-22T08:18:25;3.57;;;2.40;;
13975;SDS011;7062;49.792;9.946;2023-07-22T08:20:51;5.90;;;2.70;;
13975;SDS011;7062;49.792;9.946;2023-07-22T08:23:18;3.27;;;2.00;;
13975;SDS011;7062;49.792;9.946;2023-07-22T08:25:44;2.17;;;1.60;;
13975;SDS011;7062;49.792;9.946;2023-07-22T08:28:10;4.70;;;2.10;;
13975;SDS011;7062;49.792;9.946;2023-07-22T08:30:35;3.93;;;2.17;;
13975;SDS011;7062;49.792;9.946;2023-07-22T08:33:01;2.47;;;1.60;;
13975;SDS011;7062;49.792;9.946;2023-07-22T08:35:27;2.67;;;2.03;;
13975;SDS011;7062;49.792;9.946;2023-07-22T08:37:52;2.93;;;2.00;;
13975;SDS011;7062;49.792;9.946;2023-07-22T08:40:19;4.83;;;2.23;;
13975;SDS011;7062;49.792;9.946;2023-07-22T08:42:45;4.07;;;1.80;;
13975;SDS011;7062;49.792;9.946;2023-07-22T08:45:13;3.50;;;1.57;;
13975;SDS011;7062;49.792;9.946;2023-07-22T08:47:43;2.13;;;1.93;;
13975;SDS011;7062;49.792;9.946;2023-07-22T08:50:11;8.60;;;3.50;;
13975;SDS011;7062;49.792;9.946;2023-07-22T08:52:44;4.30;;;2.30;;
13975;SDS011;7062;49.792;9.946;2023-07-22T08:55:11;7.47;;;2.20;;
13975;SDS011;7062;49.792;9.946;2023-07-22T08:57:38;3.73;;;2.03;;
13975;SDS011;7062;49.792;9.946;2023-07-22T09:00:04;2.23;;;1.90;;
13975;SDS011;7062;49.792;9.946;2023-07-22T09:02:34;3.03;;;2.17;;
13975;SDS011;7062;49.792;9.946;2023-07-22T09:05:00;3.80;;;2.07;;
13975;SDS011;7062;49.792;9.946;2023-07-22T09:07:26;2.37;;;2.17;;
13975;SDS011;7062;49.792;9.946;2023-07-22T09:09:53;2.30;;;1.67;;
13975;SDS011;7062;49.792;9.946;2023-07-22T09:12:21;2.47;;;2.27;;
13975;SDS011;7062;49.792;9.946;2023-07-22T09:14:47;2.90;;;1.97;;
13975;SDS011;7062;49.792;9.946;2023-07-22T09:17:14;4.10;;;2.20;;
13975;SDS011;7062;49.792;9.946;2023-07-22T09:19:40;3.77;;;2.30;;
13975;SDS011;7062;49.792;9.946;2023-07-22T09:22:07;2.93;;;1.90;;
13975;SDS011;7062;49.792;9.946;2023-07-22T09:24:33;2.30;;;1.97;;
13975;SDS011;7062;49.792;9.946;2023-07-22T09:26:58;4.70;;;2.47;;
13975;SDS011;7062;49.792;9.946;2023-07-22T09:29:35;4.40;;;2.07;;
13975;SDS011;7062;49.792;9.946;2023-07-22T09:32:02;2.90;;;1.83;;
13975;SDS011;7062;49.792;9.946;2023-07-22T09:34:28;5.33;;;2.20;;
13975;SDS011;7062;49.792;9.946;2023-07-22T09:36:55;5.57;;;1.83;;
13975;SDS011;7062;49.792;9.946;2023-07-22T09:39:22;2.70;;;1.57;;
13975;SDS011;7062;49.792;9.946;2023-07-22T09:41:51;2.70;;;2.07;;
13975;SDS011;7062;49.792;9.946;2023-07-22T09:44:20;2.97;;;1.80;;
13975;SDS011;7062;49.792;9.946;2023-07-22T09:46:53;6.93;;;2.03;;
13975;SDS011;7062;49.792;9.946;2023-07-22T09:49:19;5.40;;;2.07;;
13975;SDS011;7062;49.792;9.946;2023-07-22T09:51:45;3.40;;;1.90;;
13975;SDS011;7062;49.792;9.946;2023-07-22T09:54:11;1.40;;;1.30;;
13975;SDS011;7062;49.792;9.946;2023-07-22T09:56:46;3.40;;;1.70;;
13975;SDS011;7062;49.792;9.946;2023-07-22T09:59:14;4.90;;;2.47;;
13975;SDS011;7062;49.792;9.946;2023-07-22T10:01:42;2.10;;;1.70;;
13975;SDS011;7062;49.792;9.946;2023-07-22T10:04:12;4.57;;;2.13;;
13975;SDS011;7062;49.792;9.946;2023-07-22T10:06:40;2.60;;;2.07;;
13975;SDS011;7062;49.792;9.946;2023-07-22T10:09:08;2.57;;;1.53;;
13975;SDS011;7062;49.792;9.946;2023-07-22T10:11:36;13.17;;;1.97;;
13975;SDS011;7062;49.792;9.946;2023-07-22T10:14:04;3.30;;;1.13;;
13975;SDS011;7062;49.792;9.946;2023-07-22T10:16:30;2.13;;;1.60;;
13975;SDS011;7062;49.792;9.946;2023-07-22T10:18:57;3.27;;;1.37;;
13975;SDS011;7062;49.792;9.946;2023-07-22T10:21:24;3.23;;;1.30;;
13975;SDS011;7062;49.792;9.946;2023-07-22T10:23:50;2.87;;;1.40;;
13975;SDS011;7062;49.792;9.946;2023-07-22T10:26:17;2.63;;;1.50;;
13975;SDS011;7062;49.792;9.946;2023-07-22T10:28:44;3.70;;;1.23;;
13975;SDS011;7062;49.792;9.946;2023-07-22T10:31:11;1.63;;;1.47;;
13975;SDS011;7062;49.792;9.946;2023-07-22T10:33:46;3.90;;;1.90;;
13975;SDS011;7062;49.792;9.946;2023-07-22T10:36:16;4.20;;;1.77;;
13975;SDS011;7062;49.792;9.946;2023-07-22T10:38:42;3.13;;;1.73;;
13975;SDS011;7062;49.792;9.946;2023-07-22T10:41:15;3.40;;;1.33;;
13975;SDS011;7062;49.792;9.946;2023-07-22T10:43:56;3.07;;;2.07;;
13975;SDS011;7062;49.792;9.946;2023-07-22T10:46:37;3.63;;;1.80;;
13975;SDS011;7062;49.792;9.946;2023-07-22T10:49:15;3.30;;;1.60;;
13975;SDS011;7062;49.792;9.946;2023-07-22T10:51:45;4.13;;;2.00;;
13975;SDS011;7062;49.792;9.946;2023-07-22T10:54:13;1.87;;;1.37;;
13975;SDS011;7062;49.792;9.946;2023-07-22T10:56:44;2.47;;;1.57;;
13975;SDS011;7062;49.792;9.946;2023-07-22T10:59:10;2.30;;;1.77;;
13975;SDS011;7062;49.792;9.946;2023-07-22T11:01:37;4.40;;;1.70;;
13975;SDS011;7062;49.792;9.946;2023-07-22T11:06:39;2.93;;;1.47;;
13975;SDS011;7062;49.792;9.946;2023-07-22T11:11:56;7.13;;;1.70;;
13975;SDS011;7062;49.792;9.946;2023-07-22T11:14:24;2.53;;;1.53;;
13975;SDS011;7062;49.792;9.946;2023-07-22T11:16:54;2.23;;;1.73;;
13975;SDS011;7062;49.792;9.946;2023-07-22T11:19:22;2.60;;;1.80;;
13975;SDS011;7062;49.792;9.946;2023-07-22T11:21:49;3.13;;;1.73;;
13975;SDS011;7062;49.792;9.946;2023-07-22T11:24:17;3.47;;;1.90;;
13975;SDS011;7062;49.792;9.946;2023-07-22T11:26:43;5.83;;;2.10;;
13975;SDS011;7062;49.792;9.946;2023-07-22T11:29:13;3.97;;;2.00;;
13975;SDS011;7062;49.792;9.946;2023-07-22T11:31:41;2.10;;;1.60;;
13975;SDS011;7062;49.792;9.946;2023-07-22T11:34:15;2.57;;;1.90;;
13975;SDS011;7062;49.792;9.946;2023-07-22T11:36:42;1.80;;;1.60;;
13975;SDS011;7062;49.792;9.946;2023-07-22T11:39:09;2.90;;;1.50;;
13975;SDS011;7062;49.792;9.946;2023-07-22T11:41:37;3.73;;;1.90;;
13975;SDS011;7062;49.792;9.946;2023-07-22T11:44:03;2.60;;;1.90;;
13975;SDS011;7062;49.792;9.946;2023-07-22T11:46:34;2.07;;;1.87;;
13975;SDS011;7062;49.792;9.946;2023-07-22T11:49:00;4.00;;;1.77;;
13975;SDS011;7062;49.792;9.946;2023-07-22T11:51:26;2.97;;;1.93;;
13975;SDS011;7062;49.792;9.946;2023-07-22T11:53:52;2.83;;;2.00;;
13975;SDS011;7062;49.792;9.946;2023-07-22T11:56:22;3.47;;;1.40;;
13975;SDS011;7062;49.792;9.946;2023-07-22T11:58:54;2.20;;;1.60;;
13975;SDS011;7062;49.792;9.946;2023-07-22T12:01:21;2.60;;;1.30;;
13975;SDS011;7062;49.792;9.946;2023-07-22T12:03:48;2.57;;;1.60;;
13975;SDS011;7062;49.792;9.946;2023-07-22T12:06:15;1.70;;;1.50;;
13975;SDS011;7062;49.792;9.946;2023-07-22T12:08:45;3.90;;;1.60;;
13975;SDS011;7062;49.792;9.946;2023-07-22T12:11:19;3.43;;;1.60;;
13975;SDS011;7062;49.792;9.946;2023-07-22T12:13:46;3.30;;;1.77;;
13975;SDS011;7062;49.792;9.946;2023-07-22T12:16:20;1.47;;;1.20;;
13975;SDS011;7062;49.792;9.946;2023-07-22T12:18:48;4.47;;;2.10;;
13975;SDS011;7062;49.792;9.946;2023-07-22T12:21:14;5.43;;;1.53;;
13975;SDS011;7062;49.792;9.946;2023-07-22T12:23:41;1.77;;;1.40;;
13975;SDS011;7062;49.792;9.946;2023-07-22T12:26:07;2.60;;;1.60;;
13975;SDS011;7062;49.792;9.946;2023-07-22T12:28:33;3.10;;;1.50;;
13975;SDS011;7062;49.792;9.946;2023-07-22T12:30:59;3.43;;;1.47;;
13975;SDS011;7062;49.792;9.946;2023-07-22T12:33:25;1.77;;;1.30;;
13975;SDS011;7062;49.792;9.946;2023-07-22T12:35:52;4.73;;;1.40;;
13975;SDS011;7062;49.792;9.946;2023-07-22T12:38:18;4.67;;;1.60;;
13975;SDS011;7062;49.792;9.946;2023-07-22T12:40:44;1.60;;;1.30;;
13975;SDS011;7062;49.792;9.946;2023-07-22T12:43:09;1.63;;;1.20;;
13975;SDS011;7062;49.792;9.946;2023-07-22T12:45:35;1.97;;;1.50;;
13975;SDS011;7062;49.792;9.946;2023-07-22T12:48:01;2.60;;;1.57;;
13975;SDS011;7062;49.792;9.946;2023-07-22T12:50:26;1.97;;;1.40;;
13975;SDS011;7062;49.792;9.946;2023-07-22T12:52:54;1.70;;;1.60;;
13975;SDS011;7062;49.792;9.946;2023-07-22T12:55:20;2.57;;;1.60;;
13975;SDS011;7062;49.792;9.946;2023-07-22T12:57:45;3.40;;;1.73;;
13975;SDS011;7062;49.792;9.946;2023-07-22T13:00:11;2.03;;;1.20;;
13975;SDS011;7062;49.792;9.946;2023-07-22T13:02:37;2.00;;;1.27;;
13975;SDS011;7062;49.792;9.946;2023-07-22T13:05:03;2.70;;;1.10;;
13975;SDS011;7062;49.792;9.946;2023-07-22T13:07:31;2.83;;;1.30;;
13975;SDS011;7062;49.792;9.946;2023-07-22T13:09:56;2.30;;;1.33;;
13975;SDS011;7062;49.792;9.946;2023-07-22T13:12:24;2.37;;;1.50;;
13975;SDS011;7062;49.792;9.946;2023-07-22T13:14:50;2.87;;;1.43;;
13975;SDS011;7062;49.792;9.946;2023-07-22T13:17:15;1.63;;;1.53;;
13975;SDS011;7062;49.792;9.946;2023-07-22T13:19:41;3.83;;;1.70;;
13975;SDS011;7062;49.792;9.946;2023-07-22T13:22:06;2.77;;;1.80;;
13975;SDS011;7062;49.792;9.946;2023-07-22T13:24:32;2.77;;;1.40;;
13975;SDS011;7062;49.792;9.946;2023-07-22T13:26:58;3.03;;;1.27;;
13975;SDS011;7062;49.792;9.946;2023-07-22T13:29:23;2.33;;;1.20;;
13975;SDS011;7062;49.792;9.946;2023-07-22T13:31:49;2.57;;;1.57;;
13975;SDS011;7062;49.792;9.946;2023-07-22T13:34:15;3.00;;;1.70;;
13975;SDS011;7062;49.792;9.946;2023-07-22T13:36:40;3.53;;;1.23;;
13975;SDS011;7062;49.792;9.946;2023-07-22T13:39:06;3.93;;;1.40;;
13975;SDS011;7062;49.792;9.946;2023-07-22T13:41:32;2.07;;;1.47;;
13975;SDS011;7062;49.792;9.946;2023-07-22T13:43:57;2.03;;;1.27;;
13975;SDS011;7062;49.792;9.946;2023-07-22T13:46:23;2.40;;;1.60;;
13975;SDS011;7062;49.792;9.946;2023-07-22T13:48:48;2.97;;;1.87;;
13975;SDS011;7062;49.792;9.946;2023-07-22T13:51:14;2.53;;;1.87;;
13975;SDS011;7062;49.792;9.946;2023-07-22T13:53:40;5.67;;;1.80;;
13975;SDS011;7062;49.792;9.946;2023-07-22T13:56:05;1.20;;;1.00;;
13975;SDS011;7062;49.792;9.946;2023-07-22T13:58:32;1.63;;;1.10;;
13975;SDS011;7062;49.792;9.946;2023-07-22T14:00:57;2.43;;;1.20;;
13975;SDS011;7062;49.792;9.946;2023-07-22T14:03:23;1.97;;;1.47;;
13975;SDS011;7062;49.792;9.946;2023-07-22T14:05:49;3.93;;;1.30;;
13975;SDS011;7062;49.792;9.946;2023-07-22T14:08:14;1.60;;;1.27;;
13975;SDS011;7062;49.792;9.946;2023-07-22T14:10:40;1.37;;;1.13;;
13975;SDS011;7062;49.792;9.946;2023-07-22T14:13:05;1.40;;;1.03;;
13975;SDS011;7062;49.792;9.946;2023-07-22T14:15:31;1.73;;;0.90;;
13975;SDS011;7062;49.792;9.946;2023-07-22T14:17:57;2.27;;;1.27;;
13975;SDS011;7062;49.792;9.946;2023-07-22T14:20:22;3.37;;;1.00;;
13975;SDS011;7062;49.792;9.946;2023-07-22T14:22:48;1.47;;;1.20;;
13975;SDS011;7062;49.792;9.946;2023-07-22T14:25:16;3.57;;;1.30;;
13975;SDS011;7062;49.792;9.946;2023-07-22T14:27:44;1.83;;;1.20;;
13975;SDS011;7062;49.792;9.946;2023-07-22T14:30:09;1.30;;;1.20;;
13975;SDS011;7062;49.792;9.946;2023-07-22T14:32:35;1.70;;;1.60;;
13975;SDS011;7062;49.792;9.946;2023-07-22T14:35:01;4.27;;;1.40;;
13975;SDS011;7062;49.792;9.946;2023-07-22T14:37:29;1.70;;;1.40;;
13975;SDS011;7062;49.792;9.946;2023-07-22T14:39:55;2.80;;;1.43;;
13975;SDS011;7062;49.792;9.946;2023-07-22T14:42:21;3.50;;;1.30;;
13975;SDS011;7062;49.792;9.946;2023-07-22T14:44:46;1.10;;;1.00;;
13975;SDS011;7062;49.792;9.946;2023-07-22T14:47:12;2.57;;;1.63;;
13975;SDS011;7062;49.792;9.946;2023-07-22T14:49:38;3.70;;;1.40;;
13975;SDS011;7062;49.792;9.946;2023-07-22T14:52:03;2.23;;;1.43;;
13975;SDS011;7062;49.792;9.946;2023-07-22T14:54:29;1.77;;;1.50;;
13975;SDS011;7062;49.792;9.946;2023-07-22T14:56:55;1.40;;;1.10;;
13975;SDS011;7062;49.792;9.946;2023-07-22T14:59:21;2.33;;;1.47;;
13975;SDS011;7062;49.792;9.946;2023-07-22T15:01:46;2.07;;;1.30;;
13975;SDS011;7062;49.792;9.946;2023-07-22T15:04:12;1.80;;;1.10;;